sensor_id;sensor_type;location;lat;lon;timestamp;P1;P2;P0
76784;PMS7003;66893;44.316;0.092;2023-04-24T00:00:07;1.50;1.25;1.00
76784;PMS7003;66893;44.316;0.092;2023-04-24T00:02:40;2.25;2.00;1.50
76784;PMS7003;66893;44.316;0.092;2023-04-24T00:05:06;1.00;1.00;1.00
76784;PMS7003;66893;44.316;0.092;2023-04-24T00:07:32;3.00;1.00;1.00
76784;PMS7003;66893;44.316;0.092;2023-04-24T00:09:58;1.50;0.75;0.25
76784;PMS7003;66893;44.316;0.092;2023-04-24T00:12:24;3.75;2.00;1.50
76784;PMS7003;66893;44.316;0.092;2023-04-24T00:14:50;0.75;0.75;0.25
76784;PMS7003;66893;44.316;0.092;2023-04-24T00:17:16;3.25;1.00;0.75
76784;PMS7003;66893;44.316;0.092;2023-04-24T00:19:45;4.00;1.00;1.00
76784;PMS7003;66893;44.316;0.092;2023-04-24T00:22:10;6.00;2.00;2.00
76784;PMS7003;66893;44.316;0.092;2023-04-24T00:24:38;1.00;1.00;0.00
76784;PMS7003;66893;44.316;0.092;2023-04-24T00:27:03;3.00;1.00;1.00
76784;PMS7003;66893;44.316;0.092;2023-04-24T00:29:29;2.00;1.75;1.00
76784;PMS7003;66893;44.316;0.092;2023-04-24T00:31:54;2.00;2.00;1.50
76784;PMS7003;66893;44.316;0.092;2023-04-24T00:34:20;3.50;1.00;1.00
76784;PMS7003;66893;44.316;0.092;2023-04-24T00:36:45;2.75;1.50;1.00
76784;PMS7003;66893;44.316;0.092;2023-04-24T00:39:11;1.75;1.50;1.00
76784;PMS7003;66893;44.316;0.092;2023-04-24T00:41:36;1.00;1.00;0.75
76784;PMS7003;66893;44.316;0.092;2023-04-24T00:44:02;2.75;2.00;1.00
76784;PMS7003;66893;44.316;0.092;2023-04-24T00:46:28;3.00;1.00;1.00
76784;PMS7003;66893;44.316;0.092;2023-04-24T00:48:54;2.25;1.50;1.25
76784;PMS7003;66893;44.316;0.092;2023-04-24T00:51:21;3.75;1.50;1.00
76784;PMS7003;66893;44.316;0.092;2023-04-24T00:53:46;3.00;2.50;1.00
76784;PMS7003;66893;44.316;0.092;2023-04-24T00:56:12;3.00;3.00;1.75
76784;PMS7003;66893;44.316;0.092;2023-04-24T00:58:38;3.00;1.75;1.00
76784;PMS7003;66893;44.316;0.092;2023-04-24T01:01:06;1.00;1.00;1.00
76784;PMS7003;66893;44.316;0.092;2023-04-24T01:03:32;3.00;2.00;1.25
76784;PMS7003;66893;44.316;0.092;2023-04-24T01:05:58;1.25;1.25;1.00
76784;PMS7003;66893;44.316;0.092;2023-04-24T01:08:24;1.50;1.00;1.00
76784;PMS7003;66893;44.316;0.092;2023-04-24T01:10:51;4.25;1.75;1.25
76784;PMS7003;66893;44.316;0.092;2023-04-24T01:13:20;1.75;1.00;1.00
76784;PMS7003;66893;44.316;0.092;2023-04-24T01:15:46;2.00;0.50;0.25
76784;PMS7003;66893;44.316;0.092;2023-04-24T01:18:12;1.00;1.00;1.00
76784;PMS7003;66893;44.316;0.092;2023-04-24T01:20:42;1.00;1.00;0.75
76784;PMS7003;66893;44.316;0.092;2023-04-24T01:23:10;3.00;1.25;1.00
76784;PMS7003;66893;44.316;0.092;2023-04-24T01:25:36;1.00;1.00;1.00
76784;PMS7003;66893;44.316;0.092;2023-04-24T01:28:02;1.25;1.25;1.00
76784;PMS7003;66893;44.316;0.092;2023-04-24T01:30:28;2.00;2.00;1.00
76784;PMS7003;66893;44.316;0.092;2023-04-24T01:32:54;5.00;2.00;1.00
76784;PMS7003;66893;44.316;0.092;2023-04-24T01:35:20;2.00;2.00;1.00
76784;PMS7003;66893;44.316;0.092;2023-04-24T01:37:46;1.00;1.00;0.50
76784;PMS7003;66893;44.316;0.092;2023-04-24T01:40:12;4.25;1.00;1.00
76784;PMS7003;66893;44.316;0.092;2023-04-24T01:42:37;2.00;2.00;1.00
76784;PMS7003;66893;44.316;0.092;2023-04-24T01:45:03;1.25;1.25;1.00
76784;PMS7003;66893;44.316;0.092;2023-04-24T01:47:30;3.00;1.75;1.00
76784;PMS7003;66893;44.316;0.092;2023-04-24T01:49:56;2.25;1.00;0.50
76784;PMS7003;66893;44.316;0.092;2023-04-24T01:52:22;2.75;1.00;1.00
76784;PMS7003;66893;44.316;0.092;2023-04-24T01:54:48;1.00;1.00;1.00
76784;PMS7003;66893;44.316;0.092;2023-04-24T01:57:14;2.00;2.00;1.00
76784;PMS7003;66893;44.316;0.092;2023-04-24T01:59:41;2.00;1.00;0.25
76784;PMS7003;66893;44.316;0.092;2023-04-24T02:02:06;1.25;1.25;1.00
76784;PMS7003;66893;44.316;0.092;2023-04-24T02:04:32;1.00;1.00;1.00
76784;PMS7003;66893;44.316;0.092;2023-04-24T02:06:57;4.00;1.00;0.50
76784;PMS7003;66893;44.316;0.092;2023-04-24T02:09:23;2.50;2.00;1.50
76784;PMS7003;66893;44.316;0.092;2023-04-24T02:11:48;1.00;1.00;1.00
76784;PMS7003;66893;44.316;0.092;2023-04-24T02:14:14;4.00;1.00;1.00
76784;PMS7003;66893;44.316;0.092;2023-04-24T02:16:39;2.50;1.00;1.00
76784;PMS7003;66893;44.316;0.092;2023-04-24T02:19:05;2.75;1.25;1.00
76784;PMS7003;66893;44.316;0.092;2023-04-24T02:21:30;0.00;0.00;0.00
76784;PMS7003;66893;44.316;0.092;2023-04-24T02:23:56;3.25;2.75;1.00
76784;PMS7003;66893;44.316;0.092;2023-04-24T02:26:21;2.50;2.00;1.00
76784;PMS7003;66893;44.316;0.092;2023-04-24T02:28:47;1.75;1.75;0.75
76784;PMS7003;66893;44.316;0.092;2023-04-24T02:31:12;2.75;2.00;1.00
76784;PMS7003;66893;44.316;0.092;2023-04-24T02:33:38;1.00;1.00;1.00
76784;PMS7003;66893;44.316;0.092;2023-04-24T02:36:03;3.25;2.00;1.50
76784;PMS7003;66893;44.316;0.092;2023-04-24T02:38:29;1.00;1.00;1.00
76784;PMS7003;66893;44.316;0.092;2023-04-24T02:40:54;2.00;1.00;0.75
76784;PMS7003;66893;44.316;0.092;2023-04-24T02:43:20;1.00;1.00;1.00
76784;PMS7003;66893;44.316;0.092;2023-04-24T02:45:46;3.50;1.75;1.00
76784;PMS7003;66893;44.316;0.092;2023-04-24T02:48:11;2.00;2.00;1.00
76784;PMS7003;66893;44.316;0.092;2023-04-24T02:50:37;1.00;1.00;0.75
76784;PMS7003;66893;44.316;0.092;2023-04-24T02:53:02;1.00;1.00;1.00
76784;PMS7003;66893;44.316;0.092;2023-04-24T02:55:28;1.25;1.25;1.00
76784;PMS7003;66893;44.316;0.092;2023-04-24T02:57:53;1.00;1.00;1.00
76784;PMS7003;66893;44.316;0.092;2023-04-24T03:00:19;3.25;1.75;1.00
76784;PMS7003;66893;44.316;0.092;2023-04-24T03:02:45;5.00;1.00;0.50
76784;PMS7003;66893;44.316;0.092;2023-04-24T03:05:10;3.25;2.25;1.00
76784;PMS7003;66893;44.316;0.092;2023-04-24T03:07:37;2.00;1.50;1.00
76784;PMS7003;66893;44.316;0.092;2023-04-24T03:10:03;2.25;1.00;1.00
76784;PMS7003;66893;44.316;0.092;2023-04-24T03:12:30;1.00;1.00;1.00
76784;PMS7003;66893;44.316;0.092;2023-04-24T03:14:56;1.00;1.00;0.75
76784;PMS7003;66893;44.316;0.092;2023-04-24T03:17:21;1.50;1.00;1.00
76784;PMS7003;66893;44.316;0.092;2023-04-24T03:19:47;1.25;1.25;1.25
76784;PMS7003;66893;44.316;0.092;2023-04-24T03:22:12;2.00;2.00;1.75
76784;PMS7003;66893;44.316;0.092;2023-04-24T03:24:38;3.25;1.25;1.00
76784;PMS7003;66893;44.316;0.092;2023-04-24T03:27:04;1.00;1.00;1.00
76784;PMS7003;66893;44.316;0.092;2023-04-24T03:29:29;2.75;0.75;0.75
76784;PMS7003;66893;44.316;0.092;2023-04-24T03:31:55;3.75;1.50;1.00
76784;PMS7003;66893;44.316;0.092;2023-04-24T03:34:20;1.75;1.75;1.00
76784;PMS7003;66893;44.316;0.092;2023-04-24T03:36:46;1.75;1.00;1.00
76784;PMS7003;66893;44.316;0.092;2023-04-24T03:39:12;4.00;1.00;0.50
76784;PMS7003;66893;44.316;0.092;2023-04-24T03:41:38;2.75;0.25;0.00
76784;PMS7003;66893;44.316;0.092;2023-04-24T03:44:03;5.25;2.00;1.00
76784;PMS7003;66893;44.316;0.092;2023-04-24T03:46:29;4.75;2.00;1.00
76784;PMS7003;66893;44.316;0.092;2023-04-24T03:48:54;1.75;1.50;1.00
76784;PMS7003;66893;44.316;0.092;2023-04-24T03:51:20;2.50;1.00;1.00
76784;PMS7003;66893;44.316;0.092;2023-04-24T03:53:46;3.50;1.00;1.00
76784;PMS7003;66893;44.316;0.092;2023-04-24T03:56:12;2.50;1.00;0.75
76784;PMS7003;66893;44.316;0.092;2023-04-24T03:58:37;3.75;1.00;0.00
76784;PMS7003;66893;44.316;0.092;2023-04-24T04:01:03;0.00;0.00;0.00
76784;PMS7003;66893;44.316;0.092;2023-04-24T04:03:28;1.00;1.00;1.00
76784;PMS7003;66893;44.316;0.092;2023-04-24T04:05:54;3.00;1.75;1.00
76784;PMS7003;66893;44.316;0.092;2023-04-24T04:08:19;3.00;2.00;1.00
76784;PMS7003;66893;44.316;0.092;2023-04-24T04:10:45;1.00;1.00;0.50
76784;PMS7003;66893;44.316;0.092;2023-04-24T04:13:10;1.00;1.00;1.00
76784;PMS7003;66893;44.316;0.092;2023-04-24T04:15:36;2.00;1.00;0.25
76784;PMS7003;66893;44.316;0.092;2023-04-24T04:18:01;2.00;1.50;1.00
76784;PMS7003;66893;44.316;0.092;2023-04-24T04:20:27;2.00;2.00;1.25
76784;PMS7003;66893;44.316;0.092;2023-04-24T04:22:52;3.00;1.00;1.00
76784;PMS7003;66893;44.316;0.092;2023-04-24T04:25:18;1.00;1.00;1.00
76784;PMS7003;66893;44.316;0.092;2023-04-24T04:27:44;1.50;1.00;1.00
76784;PMS7003;66893;44.316;0.092;2023-04-24T04:30:12;1.00;1.00;1.00
76784;PMS7003;66893;44.316;0.092;2023-04-24T04:32:38;1.25;0.75;0.50
76784;PMS7003;66893;44.316;0.092;2023-04-24T04:35:04;2.00;1.25;1.00
76784;PMS7003;66893;44.316;0.092;2023-04-24T04:37:30;3.50;2.00;1.00
76784;PMS7003;66893;44.316;0.092;2023-04-24T04:39:56;2.00;1.00;1.00
76784;PMS7003;66893;44.316;0.092;2023-04-24T04:42:25;3.25;1.00;1.00
76784;PMS7003;66893;44.316;0.092;2023-04-24T04:44:52;1.50;1.25;1.00
76784;PMS7003;66893;44.316;0.092;2023-04-24T04:47:18;2.25;1.25;0.50
76784;PMS7003;66893;44.316;0.092;2023-04-24T04:49:48;1.00;1.00;0.75
76784;PMS7003;66893;44.316;0.092;2023-04-24T04:52:13;1.00;1.00;1.00
76784;PMS7003;66893;44.316;0.092;2023-04-24T04:54:39;1.00;1.00;1.00
76784;PMS7003;66893;44.316;0.092;2023-04-24T04:57:05;3.00;1.00;1.00
76784;PMS7003;66893;44.316;0.092;2023-04-24T04:59:31;1.25;1.25;1.00
76784;PMS7003;66893;44.316;0.092;2023-04-24T05:01:56;2.00;2.00;1.00
76784;PMS7003;66893;44.316;0.092;2023-04-24T05:04:22;2.00;1.00;1.00
76784;PMS7003;66893;44.316;0.092;2023-04-24T05:06:47;0.75;0.75;0.50
76784;PMS7003;66893;44.316;0.092;2023-04-24T05:09:13;2.00;2.00;1.75
76784;PMS7003;66893;44.316;0.092;2023-04-24T05:11:38;4.50;1.75;1.00
76784;PMS7003;66893;44.316;0.092;2023-04-24T05:14:04;2.50;1.75;1.00
76784;PMS7003;66893;44.316;0.092;2023-04-24T05:16:29;2.50;1.00;1.00
76784;PMS7003;66893;44.316;0.092;2023-04-24T05:18:56;1.00;0.25;0.00
76784;PMS7003;66893;44.316;0.092;2023-04-24T05:21:21;4.00;2.00;1.00
76784;PMS7003;66893;44.316;0.092;2023-04-24T05:23:46;2.00;2.00;2.00
76784;PMS7003;66893;44.316;0.092;2023-04-24T05:26:13;2.50;2.00;2.00
76784;PMS7003;66893;44.316;0.092;2023-04-24T05:28:38;2.00;2.00;1.25
76784;PMS7003;66893;44.316;0.092;2023-04-24T05:31:04;2.00;2.00;2.00
76784;PMS7003;66893;44.316;0.092;2023-04-24T05:33:29;2.75;2.00;1.25
76784;PMS7003;66893;44.316;0.092;2023-04-24T05:35:55;3.00;1.75;1.00
76784;PMS7003;66893;44.316;0.092;2023-04-24T05:38:21;1.00;1.00;1.00
76784;PMS7003;66893;44.316;0.092;2023-04-24T05:40:46;4.25;3.00;1.00
76784;PMS7003;66893;44.316;0.092;2023-04-24T05:43:12;4.25;1.00;1.00
76784;PMS7003;66893;44.316;0.092;2023-04-24T05:45:38;2.50;2.50;1.75
76784;PMS7003;66893;44.316;0.092;2023-04-24T05:48:03;4.00;2.00;1.25
76784;PMS7003;66893;44.316;0.092;2023-04-24T05:50:29;2.00;1.25;1.00
76784;PMS7003;66893;44.316;0.092;2023-04-24T05:52:55;1.25;1.25;1.25
76784;PMS7003;66893;44.316;0.092;2023-04-24T05:55:23;1.75;1.75;1.50
76784;PMS7003;66893;44.316;0.092;2023-04-24T05:57:49;1.25;1.25;1.00
76784;PMS7003;66893;44.316;0.092;2023-04-24T06:00:15;3.75;1.75;1.00
76784;PMS7003;66893;44.316;0.092;2023-04-24T06:02:40;2.75;2.00;2.00
76784;PMS7003;66893;44.316;0.092;2023-04-24T06:05:06;3.25;2.00;2.00
76784;PMS7003;66893;44.316;0.092;2023-04-24T06:07:33;2.75;2.00;1.50
76784;PMS7003;66893;44.316;0.092;2023-04-24T06:09:58;4.25;2.00;2.00
76784;PMS7003;66893;44.316;0.092;2023-04-24T06:12:24;4.25;2.00;2.00
76784;PMS7003;66893;44.316;0.092;2023-04-24T06:14:50;5.50;3.00;2.25
76784;PMS7003;66893;44.316;0.092;2023-04-24T06:17:16;2.25;2.25;2.00
76784;PMS7003;66893;44.316;0.092;2023-04-24T06:19:43;4.00;2.00;2.00
76784;PMS7003;66893;44.316;0.092;2023-04-24T06:22:08;2.25;2.25;2.00
76784;PMS7003;66893;44.316;0.092;2023-04-24T06:24:34;4.00;3.00;2.25
76784;PMS7003;66893;44.316;0.092;2023-04-24T06:27:00;4.00;2.50;2.00
76784;PMS7003;66893;44.316;0.092;2023-04-24T06:29:26;2.00;2.00;2.00
76784;PMS7003;66893;44.316;0.092;2023-04-24T06:31:52;2.00;2.00;1.50
76784;PMS7003;66893;44.316;0.092;2023-04-24T06:34:17;2.00;2.00;2.00
76784;PMS7003;66893;44.316;0.092;2023-04-24T06:36:43;4.00;2.00;1.00
76784;PMS7003;66893;44.316;0.092;2023-04-24T06:39:08;2.00;2.00;1.50
76784;PMS7003;66893;44.316;0.092;2023-04-24T06:41:34;5.25;2.00;1.00
76784;PMS7003;66893;44.316;0.092;2023-04-24T06:43:59;4.00;3.00;2.00
76784;PMS7003;66893;44.316;0.092;2023-04-24T06:46:25;6.00;4.00;3.00
76784;PMS7003;66893;44.316;0.092;2023-04-24T06:48:52;3.00;2.00;2.00
76784;PMS7003;66893;44.316;0.092;2023-04-24T06:51:22;2.75;2.50;1.25
76784;PMS7003;66893;44.316;0.092;2023-04-24T06:53:48;2.50;2.25;2.00
76784;PMS7003;66893;44.316;0.092;2023-04-24T06:56:14;5.25;4.50;2.75
76784;PMS7003;66893;44.316;0.092;2023-04-24T06:58:40;3.25;3.25;2.50
76784;PMS7003;66893;44.316;0.092;2023-04-24T07:01:05;2.25;2.25;2.25
76784;PMS7003;66893;44.316;0.092;2023-04-24T07:03:31;5.00;3.00;2.00
76784;PMS7003;66893;44.316;0.092;2023-04-24T07:05:56;3.25;3.25;2.50
76784;PMS7003;66893;44.316;0.092;2023-04-24T07:08:22;6.00;4.00;3.00
76784;PMS7003;66893;44.316;0.092;2023-04-24T07:10:49;4.25;2.25;2.00
76784;PMS7003;66893;44.316;0.092;2023-04-24T07:13:15;4.25;3.25;2.50
76784;PMS7003;66893;44.316;0.092;2023-04-24T07:15:42;5.00;3.25;3.00
76784;PMS7003;66893;44.316;0.092;2023-04-24T07:18:07;3.25;3.25;2.25
76784;PMS7003;66893;44.316;0.092;2023-04-24T07:20:33;4.00;4.00;3.00
76784;PMS7003;66893;44.316;0.092;2023-04-24T07:22:59;3.00;3.00;2.75
76784;PMS7003;66893;44.316;0.092;2023-04-24T07:25:25;2.75;2.75;2.00
76784;PMS7003;66893;44.316;0.092;2023-04-24T07:27:50;3.25;3.00;3.00
76784;PMS7003;66893;44.316;0.092;2023-04-24T07:30:16;4.25;3.25;2.00
76784;PMS7003;66893;44.316;0.092;2023-04-24T07:32:41;3.25;3.25;3.00
76784;PMS7003;66893;44.316;0.092;2023-04-24T07:35:07;4.25;4.25;3.50
76784;PMS7003;66893;44.316;0.092;2023-04-24T07:37:34;3.00;3.00;2.00
76784;PMS7003;66893;44.316;0.092;2023-04-24T07:40:00;3.00;3.00;2.25
76784;PMS7003;66893;44.316;0.092;2023-04-24T07:42:25;3.00;3.00;3.00
76784;PMS7003;66893;44.316;0.092;2023-04-24T07:44:51;3.00;3.00;2.00
76784;PMS7003;66893;44.316;0.092;2023-04-24T07:47:16;2.75;2.75;2.00
76784;PMS7003;66893;44.316;0.092;2023-04-24T07:49:42;3.00;2.25;2.00
76784;PMS7003;66893;44.316;0.092;2023-04-24T07:52:07;2.00;2.00;1.50
76784;PMS7003;66893;44.316;0.092;2023-04-24T07:54:33;3.00;3.00;1.50
76784;PMS7003;66893;44.316;0.092;2023-04-24T07:56:58;2.25;2.25;2.00
76784;PMS7003;66893;44.316;0.092;2023-04-24T07:59:25;2.75;2.75;2.00
76784;PMS7003;66893;44.316;0.092;2023-04-24T08:01:51;4.25;3.00;2.50
76784;PMS7003;66893;44.316;0.092;2023-04-24T08:04:16;3.00;3.00;2.00
76784;PMS7003;66893;44.316;0.092;2023-04-24T08:06:43;3.25;3.25;2.50
76784;PMS7003;66893;44.316;0.092;2023-04-24T08:09:08;2.00;2.00;2.00
76784;PMS7003;66893;44.316;0.092;2023-04-24T08:11:34;2.75;2.25;2.00
76784;PMS7003;66893;44.316;0.092;2023-04-24T08:13:59;3.75;3.50;2.00
76784;PMS7003;66893;44.316;0.092;2023-04-24T08:16:25;2.75;2.75;2.00
76784;PMS7003;66893;44.316;0.092;2023-04-24T08:18:50;3.75;3.75;3.00
76784;PMS7003;66893;44.316;0.092;2023-04-24T08:21:16;3.25;3.00;2.00
76784;PMS7003;66893;44.316;0.092;2023-04-24T08:23:43;4.75;4.00;3.00
76784;PMS7003;66893;44.316;0.092;2023-04-24T08:26:10;4.50;4.00;3.00
76784;PMS7003;66893;44.316;0.092;2023-04-24T08:28:36;3.75;3.00;2.25
76784;PMS7003;66893;44.316;0.092;2023-04-24T08:31:02;5.00;3.25;2.50
76784;PMS7003;66893;44.316;0.092;2023-04-24T08:33:27;3.00;3.00;2.25
76784;PMS7003;66893;44.316;0.092;2023-04-24T08:35:59;2.75;2.75;2.25
76784;PMS7003;66893;44.316;0.092;2023-04-24T08:38:28;1.25;1.00;1.00
76784;PMS7003;66893;44.316;0.092;2023-04-24T08:40:54;2.00;2.00;2.00
76784;PMS7003;66893;44.316;0.092;2023-04-24T08:43:21;3.75;3.00;2.00
76784;PMS7003;66893;44.316;0.092;2023-04-24T08:45:47;2.00;2.00;2.00
76784;PMS7003;66893;44.316;0.092;2023-04-24T08:48:12;4.00;4.00;3.00
76784;PMS7003;66893;44.316;0.092;2023-04-24T08:50:39;8.50;5.00;3.75
76784;PMS7003;66893;44.316;0.092;2023-04-24T08:53:07;8.75;4.25;3.25
76784;PMS7003;66893;44.316;0.092;2023-04-24T08:55:33;4.00;4.00;2.25
76784;PMS7003;66893;44.316;0.092;2023-04-24T08:57:59;11.00;6.00;4.00
76784;PMS7003;66893;44.316;0.092;2023-04-24T09:00:26;4.50;4.50;3.25
76784;PMS7003;66893;44.316;0.092;2023-04-24T09:02:52;5.00;4.00;3.00
76784;PMS7003;66893;44.316;0.092;2023-04-24T09:05:18;5.25;4.75;4.00
76784;PMS7003;66893;44.316;0.092;2023-04-24T09:07:48;6.75;5.00;4.00
76784;PMS7003;66893;44.316;0.092;2023-04-24T09:10:18;5.25;4.25;4.00
76784;PMS7003;66893;44.316;0.092;2023-04-24T09:12:44;4.75;3.50;2.50
76784;PMS7003;66893;44.316;0.092;2023-04-24T09:15:10;3.00;3.00;3.00
76784;PMS7003;66893;44.316;0.092;2023-04-24T09:17:36;3.75;3.25;3.00
76784;PMS7003;66893;44.316;0.092;2023-04-24T09:20:03;3.00;3.00;2.00
76784;PMS7003;66893;44.316;0.092;2023-04-24T09:22:29;4.50;4.00;3.00
76784;PMS7003;66893;44.316;0.092;2023-04-24T09:25:05;4.00;4.00;3.25
76784;PMS7003;66893;44.316;0.092;2023-04-24T09:27:33;4.50;3.00;2.75
76784;PMS7003;66893;44.316;0.092;2023-04-24T09:29:59;4.25;4.00;2.75
76784;PMS7003;66893;44.316;0.092;2023-04-24T09:32:26;5.00;3.25;3.00
76784;PMS7003;66893;44.316;0.092;2023-04-24T09:37:50;3.50;3.00;3.00
76784;PMS7003;66893;44.316;0.092;2023-04-24T09:40:19;2.00;2.00;2.00
76784;PMS7003;66893;44.316;0.092;2023-04-24T09:42:50;5.50;4.00;3.00
76784;PMS7003;66893;44.316;0.092;2023-04-24T09:45:20;3.00;3.00;3.00
76784;PMS7003;66893;44.316;0.092;2023-04-24T09:47:46;3.25;3.25;3.00
76784;PMS7003;66893;44.316;0.092;2023-04-24T09:50:17;6.00;5.00;3.75
76784;PMS7003;66893;44.316;0.092;2023-04-24T09:52:43;3.50;3.50;2.75
76784;PMS7003;66893;44.316;0.092;2023-04-24T09:55:16;5.00;4.00;3.25
76784;PMS7003;66893;44.316;0.092;2023-04-24T09:57:48;2.75;2.50;2.00
76784;PMS7003;66893;44.316;0.092;2023-04-24T10:00:25;3.00;3.00;2.25
76784;PMS7003;66893;44.316;0.092;2023-04-24T10:03:01;3.00;3.00;3.00
76784;PMS7003;66893;44.316;0.092;2023-04-24T10:05:36;3.00;2.25;2.00
76784;PMS7003;66893;44.316;0.092;2023-04-24T10:08:07;4.00;3.00;2.00
76784;PMS7003;66893;44.316;0.092;2023-04-24T10:10:35;2.50;2.25;2.00
76784;PMS7003;66893;44.316;0.092;2023-04-24T10:13:04;2.25;2.25;2.00
76784;PMS7003;66893;44.316;0.092;2023-04-24T10:15:30;3.00;3.00;2.00
76784;PMS7003;66893;44.316;0.092;2023-04-24T10:20:26;3.00;3.00;2.25
76784;PMS7003;66893;44.316;0.092;2023-04-24T10:22:54;2.50;2.50;2.00
76784;PMS7003;66893;44.316;0.092;2023-04-24T10:25:22;1.75;1.75;1.25
76784;PMS7003;66893;44.316;0.092;2023-04-24T10:27:55;3.00;2.75;2.50
76784;PMS7003;66893;44.316;0.092;2023-04-24T10:30:23;3.00;3.00;2.00
76784;PMS7003;66893;44.316;0.092;2023-04-24T10:32:48;3.00;3.00;2.25
76784;PMS7003;66893;44.316;0.092;2023-04-24T10:35:15;2.75;2.75;2.75
76784;PMS7003;66893;44.316;0.092;2023-04-24T10:37:46;1.00;1.00;1.00
76784;PMS7003;66893;44.316;0.092;2023-04-24T10:40:19;5.00;3.25;2.00
76784;PMS7003;66893;44.316;0.092;2023-04-24T10:42:51;3.50;2.00;2.00
76784;PMS7003;66893;44.316;0.092;2023-04-24T10:45:21;3.00;3.00;2.50
76784;PMS7003;66893;44.316;0.092;2023-04-24T10:47:51;2.25;2.25;2.00
76784;PMS7003;66893;44.316;0.092;2023-04-24T10:50:18;2.00;2.00;2.00
76784;PMS7003;66893;44.316;0.092;2023-04-24T10:52:47;3.00;3.00;2.00
76784;PMS7003;66893;44.316;0.092;2023-04-24T10:55:15;2.00;2.00;1.50
76784;PMS7003;66893;44.316;0.092;2023-04-24T10:58:00;2.75;2.00;2.00
76784;PMS7003;66893;44.316;0.092;2023-04-24T11:00:29;3.00;2.00;1.50
76784;PMS7003;66893;44.316;0.092;2023-04-24T11:02:55;3.00;2.00;1.75
76784;PMS7003;66893;44.316;0.092;2023-04-24T11:05:22;2.00;2.00;1.75
76784;PMS7003;66893;44.316;0.092;2023-04-24T11:10:47;2.00;2.00;1.25
76784;PMS7003;66893;44.316;0.092;2023-04-24T11:13:22;1.00;1.00;1.00
76784;PMS7003;66893;44.316;0.092;2023-04-24T11:18:40;3.50;1.25;1.25
76784;PMS7003;66893;44.316;0.092;2023-04-24T11:21:13;2.00;2.00;1.75
76784;PMS7003;66893;44.316;0.092;2023-04-24T11:23:42;2.75;2.75;2.00
76784;PMS7003;66893;44.316;0.092;2023-04-24T11:26:11;4.50;3.00;2.25
76784;PMS7003;66893;44.316;0.092;2023-04-24T11:28:48;3.50;1.50;1.00
76784;PMS7003;66893;44.316;0.092;2023-04-24T11:34:07;3.00;3.00;2.25
76784;PMS7003;66893;44.316;0.092;2023-04-24T11:36:36;4.00;2.50;2.00
76784;PMS7003;66893;44.316;0.092;2023-04-24T11:39:02;2.50;2.50;2.00
76784;PMS7003;66893;44.316;0.092;2023-04-24T11:41:28;3.75;3.00;2.50
76784;PMS7003;66893;44.316;0.092;2023-04-24T11:43:53;2.75;2.00;1.25
76784;PMS7003;66893;44.316;0.092;2023-04-24T11:46:20;2.00;1.75;1.50
76784;PMS7003;66893;44.316;0.092;2023-04-24T11:48:46;1.25;1.25;1.00
76784;PMS7003;66893;44.316;0.092;2023-04-24T11:51:15;2.25;2.00;1.00
76784;PMS7003;66893;44.316;0.092;2023-04-24T11:53:41;2.25;1.25;1.00
76784;PMS7003;66893;44.316;0.092;2023-04-24T11:56:08;1.00;1.00;1.00
76784;PMS7003;66893;44.316;0.092;2023-04-24T11:58:37;1.25;1.25;1.00
76784;PMS7003;66893;44.316;0.092;2023-04-24T12:01:04;1.75;1.25;1.00
76784;PMS7003;66893;44.316;0.092;2023-04-24T12:03:30;2.25;2.25;1.25
76784;PMS7003;66893;44.316;0.092;2023-04-24T12:06:09;3.00;1.50;1.50
76784;PMS7003;66893;44.316;0.092;2023-04-24T12:08:35;2.00;2.00;1.50
76784;PMS7003;66893;44.316;0.092;2023-04-24T12:11:02;1.00;1.00;1.00
76784;PMS7003;66893;44.316;0.092;2023-04-24T12:13:28;2.00;2.00;2.00
76784;PMS7003;66893;44.316;0.092;2023-04-24T12:15:54;1.00;1.00;1.00
76784;PMS7003;66893;44.316;0.092;2023-04-24T12:18:24;0.25;0.00;0.00
76784;PMS7003;66893;44.316;0.092;2023-04-24T12:20:50;2.00;2.00;1.00
76784;PMS7003;66893;44.316;0.092;2023-04-24T12:23:16;1.50;1.50;1.25
76784;PMS7003;66893;44.316;0.092;2023-04-24T12:25:42;1.25;1.25;1.00
76784;PMS7003;66893;44.316;0.092;2023-04-24T12:28:12;2.00;1.75;1.00
76784;PMS7003;66893;44.316;0.092;2023-04-24T12:30:42;3.00;3.00;2.00
76784;PMS7003;66893;44.316;0.092;2023-04-24T12:33:16;1.00;1.00;1.00
76784;PMS7003;66893;44.316;0.092;2023-04-24T12:35:45;1.25;1.25;1.00
76784;PMS7003;66893;44.316;0.092;2023-04-24T12:38:12;3.00;1.25;1.00
76784;PMS7003;66893;44.316;0.092;2023-04-24T12:40:39;1.00;1.00;1.00
76784;PMS7003;66893;44.316;0.092;2023-04-24T12:43:16;2.00;2.00;1.50
76784;PMS7003;66893;44.316;0.092;2023-04-24T12:45:43;1.50;1.50;1.00
76784;PMS7003;66893;44.316;0.092;2023-04-24T12:48:09;3.00;1.75;1.00
76784;PMS7003;66893;44.316;0.092;2023-04-24T12:50:35;3.50;2.75;2.00
76784;PMS7003;66893;44.316;0.092;2023-04-24T12:53:01;2.00;2.00;2.00
76784;PMS7003;66893;44.316;0.092;2023-04-24T12:55:26;2.00;1.00;1.00
76784;PMS7003;66893;44.316;0.092;2023-04-24T12:57:52;1.50;1.50;1.00
76784;PMS7003;66893;44.316;0.092;2023-04-24T13:00:20;4.75;3.00;2.00
76784;PMS7003;66893;44.316;0.092;2023-04-24T13:02:45;2.00;2.00;1.50
76784;PMS7003;66893;44.316;0.092;2023-04-24T13:05:11;2.00;2.00;1.50
76784;PMS7003;66893;44.316;0.092;2023-04-24T13:07:38;2.00;2.00;1.75
76784;PMS7003;66893;44.316;0.092;2023-04-24T13:10:04;3.00;2.00;2.00
76784;PMS7003;66893;44.316;0.092;2023-04-24T13:12:31;2.75;2.75;2.00
76784;PMS7003;66893;44.316;0.092;2023-04-24T13:14:57;1.25;1.25;1.00
76784;PMS7003;66893;44.316;0.092;2023-04-24T13:17:23;2.75;2.00;1.00
76784;PMS7003;66893;44.316;0.092;2023-04-24T13:19:49;2.00;2.00;1.75
76784;PMS7003;66893;44.316;0.092;2023-04-24T13:22:17;4.00;2.00;1.25
76784;PMS7003;66893;44.316;0.092;2023-04-24T13:24:46;4.75;2.25;1.75
76784;PMS7003;66893;44.316;0.092;2023-04-24T13:27:13;2.50;2.50;2.50
76784;PMS7003;66893;44.316;0.092;2023-04-24T13:29:39;4.00;4.00;3.25
76784;PMS7003;66893;44.316;0.092;2023-04-24T13:32:05;2.00;2.00;2.00
76784;PMS7003;66893;44.316;0.092;2023-04-24T13:34:31;3.00;2.00;1.50
76784;PMS7003;66893;44.316;0.092;2023-04-24T13:36:56;3.00;1.25;1.00
76784;PMS7003;66893;44.316;0.092;2023-04-24T13:39:23;3.00;2.00;2.00
76784;PMS7003;66893;44.316;0.092;2023-04-24T13:41:50;3.25;2.00;1.25
76784;PMS7003;66893;44.316;0.092;2023-04-24T13:44:16;1.25;1.25;1.00
76784;PMS7003;66893;44.316;0.092;2023-04-24T13:46:43;8.75;5.00;3.00
76784;PMS7003;66893;44.316;0.092;2023-04-24T13:49:10;7.50;5.00;3.00
76784;PMS7003;66893;44.316;0.092;2023-04-24T13:51:36;2.25;2.00;1.75
76784;PMS7003;66893;44.316;0.092;2023-04-24T13:54:02;2.00;2.00;1.25
76784;PMS7003;66893;44.316;0.092;2023-04-24T13:56:27;3.75;2.00;1.00
76784;PMS7003;66893;44.316;0.092;2023-04-24T13:58:52;2.00;2.00;2.00
76784;PMS7003;66893;44.316;0.092;2023-04-24T14:01:21;2.00;1.75;1.00
76784;PMS7003;66893;44.316;0.092;2023-04-24T14:03:50;4.00;2.00;2.00
76784;PMS7003;66893;44.316;0.092;2023-04-24T14:06:18;2.25;2.00;1.00
76784;PMS7003;66893;44.316;0.092;2023-04-24T14:08:44;1.00;1.00;1.00
76784;PMS7003;66893;44.316;0.092;2023-04-24T14:11:10;2.50;2.00;2.00
76784;PMS7003;66893;44.316;0.092;2023-04-24T14:13:36;2.75;2.00;1.50
76784;PMS7003;66893;44.316;0.092;2023-04-24T14:16:03;2.00;2.00;2.00
76784;PMS7003;66893;44.316;0.092;2023-04-24T14:18:29;0.75;0.75;0.75
76784;PMS7003;66893;44.316;0.092;2023-04-24T14:20:54;1.00;1.00;1.00
76784;PMS7003;66893;44.316;0.092;2023-04-24T14:23:20;1.75;1.75;1.00
76784;PMS7003;66893;44.316;0.092;2023-04-24T14:25:45;2.00;2.00;2.00
76784;PMS7003;66893;44.316;0.092;2023-04-24T14:28:13;3.00;1.50;1.25
76784;PMS7003;66893;44.316;0.092;2023-04-24T14:30:38;2.00;2.00;1.00
76784;PMS7003;66893;44.316;0.092;2023-04-24T14:33:05;3.50;2.00;1.25